sensor_id;sensor_type;location;lat;lon;timestamp;temperature;humidity
21207;DHT22;10761;48.532;8.026;2023-04-15T00:02:21;7.00;1.00
21207;DHT22;10761;48.532;8.026;2023-04-15T00:04:47;6.70;1.00
21207;DHT22;10761;48.532;8.026;2023-04-15T00:07:13;6.60;37.20
21207;DHT22;10761;48.532;8.026;2023-04-15T00:09:41;6.50;99.90
21207;DHT22;10761;48.532;8.026;2023-04-15T00:12:07;6.40;99.90
21207;DHT22;10761;48.532;8.026;2023-04-15T00:14:33;6.40;1.00
21207;DHT22;10761;48.532;8.026;2023-04-15T00:17:01;6.30;99.90
21207;DHT22;10761;48.532;8.026;2023-04-15T00:19:26;6.20;99.90
21207;DHT22;10761;48.532;8.026;2023-04-15T00:21:52;6.10;20.90
21207;DHT22;10761;48.532;8.026;2023-04-15T00:24:17;6.00;1.00
21207;DHT22;10761;48.532;8.026;2023-04-15T00:26:43;6.00;1.00
21207;DHT22;10761;48.532;8.026;2023-04-15T00:29:09;5.90;99.90
21207;DHT22;10761;48.532;8.026;2023-04-15T00:31:35;5.80;99.90
21207;DHT22;10761;48.532;8.026;2023-04-15T00:34:00;5.60;99.90
21207;DHT22;10761;48.532;8.026;2023-04-15T00:36:26;5.50;99.90
21207;DHT22;10761;48.532;8.026;2023-04-15T00:38:52;5.50;1.00
21207;DHT22;10761;48.532;8.026;2023-04-15T00:41:18;5.50;99.90
21207;DHT22;10761;48.532;8.026;2023-04-15T00:43:43;5.50;1.00
21207;DHT22;10761;48.532;8.026;2023-04-15T00:46:12;5.50;1.00
21207;DHT22;10761;48.532;8.026;2023-04-15T00:48:38;5.50;99.90
21207;DHT22;10761;48.532;8.026;2023-04-15T00:51:05;5.50;99.90
21207;DHT22;10761;48.532;8.026;2023-04-15T00:53:32;5.40;1.00
21207;DHT22;10761;48.532;8.026;2023-04-15T00:55:57;5.40;1.00
21207;DHT22;10761;48.532;8.026;2023-04-15T00:58:23;5.40;1.00
21207;DHT22;10761;48.532;8.026;2023-04-15T01:00:49;5.40;1.00
21207;DHT22;10761;48.532;8.026;2023-04-15T01:03:18;5.30;1.00
21207;DHT22;10761;48.532;8.026;2023-04-15T01:05:45;5.30;1.00
21207;DHT22;10761;48.532;8.026;2023-04-15T01:08:11;5.20;1.00
21207;DHT22;10761;48.532;8.026;2023-04-15T01:10:36;5.10;99.90
21207;DHT22;10761;48.532;8.026;2023-04-15T01:13:03;5.10;99.90
21207;DHT22;10761;48.532;8.026;2023-04-15T01:15:28;5.10;99.90
21207;DHT22;10761;48.532;8.026;2023-04-15T01:17:56;5.20;88.80
21207;DHT22;10761;48.532;8.026;2023-04-15T01:20:23;5.20;1.00
21207;DHT22;10761;48.532;8.026;2023-04-15T01:22:49;5.30;1.00
21207;DHT22;10761;48.532;8.026;2023-04-15T01:25:24;5.30;1.00
21207;DHT22;10761;48.532;8.026;2023-04-15T01:27:51;5.30;1.00
21207;DHT22;10761;48.532;8.026;2023-04-15T01:30:17;5.20;1.00
21207;DHT22;10761;48.532;8.026;2023-04-15T01:32:42;5.20;19.80
21207;DHT22;10761;48.532;8.026;2023-04-15T01:35:08;5.10;1.00
21207;DHT22;10761;48.532;8.026;2023-04-15T01:37:34;5.00;99.90
21207;DHT22;10761;48.532;8.026;2023-04-15T01:40:01;4.90;1.00
21207;DHT22;10761;48.532;8.026;2023-04-15T01:42:27;4.90;1.00
21207;DHT22;10761;48.532;8.026;2023-04-15T01:44:53;4.90;99.90
21207;DHT22;10761;48.532;8.026;2023-04-15T01:47:19;4.90;1.00
21207;DHT22;10761;48.532;8.026;2023-04-15T01:49:45;4.90;1.00
21207;DHT22;10761;48.532;8.026;2023-04-15T01:52:11;4.80;1.00
21207;DHT22;10761;48.532;8.026;2023-04-15T01:54:36;4.70;99.90
21207;DHT22;10761;48.532;8.026;2023-04-15T01:57:02;4.60;1.00
21207;DHT22;10761;48.532;8.026;2023-04-15T01:59:29;4.60;1.00
21207;DHT22;10761;48.532;8.026;2023-04-15T02:01:55;4.50;99.90
21207;DHT22;10761;48.532;8.026;2023-04-15T02:04:21;4.40;26.70
21207;DHT22;10761;48.532;8.026;2023-04-15T02:06:47;4.40;6.60
21207;DHT22;10761;48.532;8.026;2023-04-15T02:09:13;4.40;1.00
21207;DHT22;10761;48.532;8.026;2023-04-15T02:11:38;4.40;1.00
21207;DHT22;10761;48.532;8.026;2023-04-15T02:14:04;4.50;36.50
21207;DHT22;10761;48.532;8.026;2023-04-15T02:16:31;4.60;1.00
21207;DHT22;10761;48.532;8.026;2023-04-15T02:18:57;4.70;72.40
21207;DHT22;10761;48.532;8.026;2023-04-15T02:21:25;4.70;1.00
21207;DHT22;10761;48.532;8.026;2023-04-15T02:23:51;4.60;99.90
21207;DHT22;10761;48.532;8.026;2023-04-15T02:26:18;4.60;99.90
21207;DHT22;10761;48.532;8.026;2023-04-15T02:28:44;4.50;1.00
21207;DHT22;10761;48.532;8.026;2023-04-15T02:31:09;4.50;1.00
21207;DHT22;10761;48.532;8.026;2023-04-15T02:33:35;4.70;98.30
21207;DHT22;10761;48.532;8.026;2023-04-15T02:36:02;4.80;1.00
21207;DHT22;10761;48.532;8.026;2023-04-15T02:38:27;5.00;1.00
21207;DHT22;10761;48.532;8.026;2023-04-15T02:40:53;5.00;1.00
21207;DHT22;10761;48.532;8.026;2023-04-15T02:43:19;5.10;1.00
21207;DHT22;10761;48.532;8.026;2023-04-15T02:45:45;5.10;1.00
21207;DHT22;10761;48.532;8.026;2023-04-15T02:48:11;5.10;1.00
21207;DHT22;10761;48.532;8.026;2023-04-15T02:50:37;5.10;1.00
21207;DHT22;10761;48.532;8.026;2023-04-15T02:53:06;5.10;1.00
21207;DHT22;10761;48.532;8.026;2023-04-15T02:55:32;5.20;1.00
21207;DHT22;10761;48.532;8.026;2023-04-15T02:57:57;5.20;1.00
21207;DHT22;10761;48.532;8.026;2023-04-15T03:00:24;5.20;1.00
21207;DHT22;10761;48.532;8.026;2023-04-15T03:02:51;5.10;1.00
21207;DHT22;10761;48.532;8.026;2023-04-15T03:05:21;5.10;1.00
21207;DHT22;10761;48.532;8.026;2023-04-15T03:07:50;5.00;1.00
21207;DHT22;10761;48.532;8.026;2023-04-15T03:10:16;4.90;1.00
21207;DHT22;10761;48.532;8.026;2023-04-15T03:12:41;4.80;1.00
21207;DHT22;10761;48.532;8.026;2023-04-15T03:15:08;4.80;99.90
21207;DHT22;10761;48.532;8.026;2023-04-15T03:17:34;4.70;99.90
21207;DHT22;10761;48.532;8.026;2023-04-15T03:20:03;4.70;99.90
21207;DHT22;10761;48.532;8.026;2023-04-15T03:22:30;4.60;1.00
21207;DHT22;10761;48.532;8.026;2023-04-15T03:24:56;4.60;99.90
21207;DHT22;10761;48.532;8.026;2023-04-15T03:27:22;4.70;1.00
21207;DHT22;10761;48.532;8.026;2023-04-15T03:29:48;4.60;99.90
21207;DHT22;10761;48.532;8.026;2023-04-15T03:32:13;4.70;99.90
21207;DHT22;10761;48.532;8.026;2023-04-15T03:34:40;4.60;99.90
21207;DHT22;10761;48.532;8.026;2023-04-15T03:37:05;4.50;1.00
21207;DHT22;10761;48.532;8.026;2023-04-15T03:39:31;4.50;1.00
21207;DHT22;10761;48.532;8.026;2023-04-15T03:41:57;4.40;1.00
21207;DHT22;10761;48.532;8.026;2023-04-15T03:44:25;4.30;1.00
21207;DHT22;10761;48.532;8.026;2023-04-15T03:46:50;4.40;1.00
21207;DHT22;10761;48.532;8.026;2023-04-15T03:49:16;4.30;1.00
21207;DHT22;10761;48.532;8.026;2023-04-15T03:51:43;4.40;1.00
21207;DHT22;10761;48.532;8.026;2023-04-15T03:54:09;4.30;1.00
21207;DHT22;10761;48.532;8.026;2023-04-15T03:56:35;4.30;1.00
21207;DHT22;10761;48.532;8.026;2023-04-15T03:59:01;4.30;1.00
21207;DHT22;10761;48.532;8.026;2023-04-15T04:01:27;4.30;1.00
21207;DHT22;10761;48.532;8.026;2023-04-15T04:03:52;4.30;1.00
21207;DHT22;10761;48.532;8.026;2023-04-15T04:06:18;4.30;99.90
21207;DHT22;10761;48.532;8.026;2023-04-15T04:08:44;4.20;1.00
21207;DHT22;10761;48.532;8.026;2023-04-15T04:11:09;4.20;1.00
21207;DHT22;10761;48.532;8.026;2023-04-15T04:13:35;4.30;1.00
21207;DHT22;10761;48.532;8.026;2023-04-15T04:16:01;4.30;1.00
21207;DHT22;10761;48.532;8.026;2023-04-15T04:18:26;4.30;1.00
21207;DHT22;10761;48.532;8.026;2023-04-15T04:20:52;4.20;1.00
21207;DHT22;10761;48.532;8.026;2023-04-15T04:23:18;4.20;1.00
21207;DHT22;10761;48.532;8.026;2023-04-15T04:25:43;4.20;1.00
21207;DHT22;10761;48.532;8.026;2023-04-15T04:28:09;4.20;1.00
21207;DHT22;10761;48.532;8.026;2023-04-15T04:30:36;4.20;1.00
21207;DHT22;10761;48.532;8.026;2023-04-15T04:33:01;4.20;99.90
21207;DHT22;10761;48.532;8.026;2023-04-15T04:35:27;4.30;16.20
21207;DHT22;10761;48.532;8.026;2023-04-15T04:37:52;4.20;1.00
21207;DHT22;10761;48.532;8.026;2023-04-15T04:40:18;4.20;99.90
21207;DHT22;10761;48.532;8.026;2023-04-15T04:42:44;4.30;1.00
21207;DHT22;10761;48.532;8.026;2023-04-15T04:45:10;4.30;1.00
21207;DHT22;10761;48.532;8.026;2023-04-15T04:47:35;4.50;1.00
21207;DHT22;10761;48.532;8.026;2023-04-15T04:50:01;4.60;1.00
21207;DHT22;10761;48.532;8.026;2023-04-15T04:52:27;4.60;99.90
21207;DHT22;10761;48.532;8.026;2023-04-15T04:54:52;4.70;1.00
21207;DHT22;10761;48.532;8.026;2023-04-15T04:57:18;4.70;11.70
21207;DHT22;10761;48.532;8.026;2023-04-15T04:59:43;4.70;3.50
21207;DHT22;10761;48.532;8.026;2023-04-15T05:02:09;4.80;1.00
21207;DHT22;10761;48.532;8.026;2023-04-15T05:04:34;4.80;1.00
21207;DHT22;10761;48.532;8.026;2023-04-15T05:07:01;4.80;1.00
21207;DHT22;10761;48.532;8.026;2023-04-15T05:09:26;4.90;99.90
21207;DHT22;10761;48.532;8.026;2023-04-15T05:11:52;4.90;99.90
21207;DHT22;10761;48.532;8.026;2023-04-15T05:14:18;5.00;1.00
21207;DHT22;10761;48.532;8.026;2023-04-15T05:16:43;5.10;99.90
21207;DHT22;10761;48.532;8.026;2023-04-15T05:19:09;5.10;1.00
21207;DHT22;10761;48.532;8.026;2023-04-15T05:21:35;5.20;1.00
21207;DHT22;10761;48.532;8.026;2023-04-15T05:24:00;5.40;1.00
21207;DHT22;10761;48.532;8.026;2023-04-15T05:26:26;5.50;1.00
21207;DHT22;10761;48.532;8.026;2023-04-15T05:28:51;5.70;1.00
21207;DHT22;10761;48.532;8.026;2023-04-15T05:31:17;5.80;99.90
21207;DHT22;10761;48.532;8.026;2023-04-15T05:33:43;5.80;99.90
21207;DHT22;10761;48.532;8.026;2023-04-15T05:36:08;5.80;1.00
21207;DHT22;10761;48.532;8.026;2023-04-15T05:38:34;5.80;99.90
21207;DHT22;10761;48.532;8.026;2023-04-15T05:41:00;5.80;99.90
21207;DHT22;10761;48.532;8.026;2023-04-15T05:43:25;5.90;99.90
21207;DHT22;10761;48.532;8.026;2023-04-15T05:45:51;6.00;1.00
21207;DHT22;10761;48.532;8.026;2023-04-15T05:48:17;6.20;1.00
21207;DHT22;10761;48.532;8.026;2023-04-15T05:50:42;6.40;1.00
21207;DHT22;10761;48.532;8.026;2023-04-15T05:53:08;6.50;99.90
21207;DHT22;10761;48.532;8.026;2023-04-15T05:55:33;6.50;1.00
21207;DHT22;10761;48.532;8.026;2023-04-15T05:57:59;6.60;1.00
21207;DHT22;10761;48.532;8.026;2023-04-15T06:00:26;6.70;1.00
21207;DHT22;10761;48.532;8.026;2023-04-15T06:02:51;6.70;48.30
21207;DHT22;10761;48.532;8.026;2023-04-15T06:05:17;6.60;99.90
21207;DHT22;10761;48.532;8.026;2023-04-15T06:07:43;6.70;56.50
21207;DHT22;10761;48.532;8.026;2023-04-15T06:10:09;6.70;1.00
21207;DHT22;10761;48.532;8.026;2023-04-15T06:12:35;6.70;99.90
21207;DHT22;10761;48.532;8.026;2023-04-15T06:15:01;6.70;99.90
21207;DHT22;10761;48.532;8.026;2023-04-15T06:17:26;6.70;1.00
21207;DHT22;10761;48.532;8.026;2023-04-15T06:19:52;6.70;1.00
21207;DHT22;10761;48.532;8.026;2023-04-15T06:22:21;6.90;99.90
21207;DHT22;10761;48.532;8.026;2023-04-15T06:24:48;7.00;1.00
21207;DHT22;10761;48.532;8.026;2023-04-15T06:27:15;7.10;1.00
21207;DHT22;10761;48.532;8.026;2023-04-15T06:29:41;7.30;1.00
21207;DHT22;10761;48.532;8.026;2023-04-15T06:32:06;7.40;1.00
21207;DHT22;10761;48.532;8.026;2023-04-15T06:34:32;7.60;99.90
21207;DHT22;10761;48.532;8.026;2023-04-15T06:36:58;7.70;1.00
21207;DHT22;10761;48.532;8.026;2023-04-15T06:39:23;7.90;1.00
21207;DHT22;10761;48.532;8.026;2023-04-15T06:41:49;8.10;1.00
21207;DHT22;10761;48.532;8.026;2023-04-15T06:44:15;8.10;1.00
21207;DHT22;10761;48.532;8.026;2023-04-15T06:46:40;8.30;1.00
21207;DHT22;10761;48.532;8.026;2023-04-15T06:49:06;8.40;1.00
21207;DHT22;10761;48.532;8.026;2023-04-15T06:51:34;8.60;1.00
21207;DHT22;10761;48.532;8.026;2023-04-15T06:54:00;8.80;1.00
21207;DHT22;10761;48.532;8.026;2023-04-15T06:56:26;8.80;99.90
21207;DHT22;10761;48.532;8.026;2023-04-15T06:58:52;8.90;99.90
21207;DHT22;10761;48.532;8.026;2023-04-15T07:01:18;9.00;99.90
21207;DHT22;10761;48.532;8.026;2023-04-15T07:03:44;9.10;66.10
21207;DHT22;10761;48.532;8.026;2023-04-15T07:06:10;9.20;1.00
21207;DHT22;10761;48.532;8.026;2023-04-15T07:08:36;9.20;1.00
21207;DHT22;10761;48.532;8.026;2023-04-15T07:11:02;9.20;1.00
21207;DHT22;10761;48.532;8.026;2023-04-15T07:13:30;9.10;1.00
21207;DHT22;10761;48.532;8.026;2023-04-15T07:15:55;9.00;1.00
21207;DHT22;10761;48.532;8.026;2023-04-15T07:18:21;8.80;1.00
21207;DHT22;10761;48.532;8.026;2023-04-15T07:20:47;8.70;1.00
21207;DHT22;10761;48.532;8.026;2023-04-15T07:23:13;8.80;1.00
21207;DHT22;10761;48.532;8.026;2023-04-15T07:25:38;8.70;1.00
21207;DHT22;10761;48.532;8.026;2023-04-15T07:28:04;8.80;1.00
21207;DHT22;10761;48.532;8.026;2023-04-15T07:30:30;9.10;1.00
21207;DHT22;10761;48.532;8.026;2023-04-15T07:32:57;9.30;1.00
21207;DHT22;10761;48.532;8.026;2023-04-15T07:35:23;9.50;99.90
21207;DHT22;10761;48.532;8.026;2023-04-15T07:37:50;9.80;99.90
21207;DHT22;10761;48.532;8.026;2023-04-15T07:40:16;10.50;99.90
21207;DHT22;10761;48.532;8.026;2023-04-15T07:42:42;11.00;1.00
21207;DHT22;10761;48.532;8.026;2023-04-15T07:45:08;11.70;1.00
21207;DHT22;10761;48.532;8.026;2023-04-15T07:47:34;12.20;1.00
21207;DHT22;10761;48.532;8.026;2023-04-15T07:50:00;12.70;1.00
21207;DHT22;10761;48.532;8.026;2023-04-15T07:52:26;12.70;1.00
21207;DHT22;10761;48.532;8.026;2023-04-15T07:54:52;13.10;1.00
21207;DHT22;10761;48.532;8.026;2023-04-15T07:57:18;13.20;99.90
21207;DHT22;10761;48.532;8.026;2023-04-15T07:59:43;13.90;1.00
21207;DHT22;10761;48.532;8.026;2023-04-15T08:02:10;14.90;99.90
21207;DHT22;10761;48.532;8.026;2023-04-15T08:04:36;15.90;99.90
21207;DHT22;10761;48.532;8.026;2023-04-15T08:07:02;16.60;99.90
21207;DHT22;10761;48.532;8.026;2023-04-15T08:09:28;16.90;99.90
21207;DHT22;10761;48.532;8.026;2023-04-15T08:11:54;16.00;99.90
21207;DHT22;10761;48.532;8.026;2023-04-15T08:14:21;16.20;99.90
21207;DHT22;10761;48.532;8.026;2023-04-15T08:16:47;16.30;99.90
21207;DHT22;10761;48.532;8.026;2023-04-15T08:19:12;15.70;99.90
21207;DHT22;10761;48.532;8.026;2023-04-15T08:21:38;15.70;99.90
21207;DHT22;10761;48.532;8.026;2023-04-15T08:24:05;16.00;99.90
21207;DHT22;10761;48.532;8.026;2023-04-15T08:26:31;16.90;99.90
21207;DHT22;10761;48.532;8.026;2023-04-15T08:28:57;16.70;99.90
21207;DHT22;10761;48.532;8.026;2023-04-15T08:31:22;17.10;99.90
21207;DHT22;10761;48.532;8.026;2023-04-15T08:33:51;17.50;99.90
21207;DHT22;10761;48.532;8.026;2023-04-15T08:36:18;17.70;97.40
21207;DHT22;10761;48.532;8.026;2023-04-15T08:38:44;18.60;59.80
21207;DHT22;10761;48.532;8.026;2023-04-15T08:41:23;19.30;20.90
21207;DHT22;10761;48.532;8.026;2023-04-15T08:43:57;19.50;1.00
21207;DHT22;10761;48.532;8.026;2023-04-15T08:46:22;19.80;1.00
21207;DHT22;10761;48.532;8.026;2023-04-15T08:48:48;19.60;1.00
21207;DHT22;10761;48.532;8.026;2023-04-15T08:51:16;19.70;1.00
21207;DHT22;10761;48.532;8.026;2023-04-15T08:53:45;19.80;1.00
21207;DHT22;10761;48.532;8.026;2023-04-15T08:56:13;19.90;1.00
21207;DHT22;10761;48.532;8.026;2023-04-15T08:58:40;19.20;1.00
21207;DHT22;10761;48.532;8.026;2023-04-15T09:01:06;18.20;1.00
21207;DHT22;10761;48.532;8.026;2023-04-15T09:03:32;17.80;1.00
21207;DHT22;10761;48.532;8.026;2023-04-15T09:05:59;18.80;1.00
21207;DHT22;10761;48.532;8.026;2023-04-15T09:08:25;18.50;1.00
21207;DHT22;10761;48.532;8.026;2023-04-15T09:10:50;18.30;1.00
21207;DHT22;10761;48.532;8.026;2023-04-15T09:13:17;18.60;1.00
21207;DHT22;10761;48.532;8.026;2023-04-15T09:15:43;18.60;1.00
21207;DHT22;10761;48.532;8.026;2023-04-15T09:18:11;18.90;1.00
21207;DHT22;10761;48.532;8.026;2023-04-15T09:20:41;19.10;1.00
21207;DHT22;10761;48.532;8.026;2023-04-15T09:23:11;18.30;1.00
21207;DHT22;10761;48.532;8.026;2023-04-15T09:25:39;17.70;1.00
21207;DHT22;10761;48.532;8.026;2023-04-15T09:28:06;18.20;1.00
21207;DHT22;10761;48.532;8.026;2023-04-15T09:30:33;18.30;1.00
21207;DHT22;10761;48.532;8.026;2023-04-15T09:33:00;18.60;1.00
21207;DHT22;10761;48.532;8.026;2023-04-15T09:35:33;18.90;1.00
21207;DHT22;10761;48.532;8.026;2023-04-15T09:38:06;18.80;1.00
21207;DHT22;10761;48.532;8.026;2023-04-15T09:40:40;18.30;1.00
21207;DHT22;10761;48.532;8.026;2023-04-15T09:43:08;17.90;1.00
21207;DHT22;10761;48.532;8.026;2023-04-15T09:45:34;17.80;1.00
21207;DHT22;10761;48.532;8.026;2023-04-15T09:48:24;18.10;1.00
21207;DHT22;10761;48.532;8.026;2023-04-15T09:50:59;18.50;1.00
21207;DHT22;10761;48.532;8.026;2023-04-15T09:53:25;18.40;1.00
21207;DHT22;10761;48.532;8.026;2023-04-15T09:55:53;18.70;1.00
21207;DHT22;10761;48.532;8.026;2023-04-15T09:58:24;18.70;1.00
21207;DHT22;10761;48.532;8.026;2023-04-15T10:00:51;18.80;1.00
21207;DHT22;10761;48.532;8.026;2023-04-15T10:03:23;18.70;1.00
21207;DHT22;10761;48.532;8.026;2023-04-15T10:05:50;18.50;1.00
21207;DHT22;10761;48.532;8.026;2023-04-15T10:08:18;18.40;1.00
21207;DHT22;10761;48.532;8.026;2023-04-15T10:10:45;18.70;1.00
21207;DHT22;10761;48.532;8.026;2023-04-15T10:13:20;18.90;1.00
21207;DHT22;10761;48.532;8.026;2023-04-15T10:15:55;18.90;1.00
21207;DHT22;10761;48.532;8.026;2023-04-15T10:18:24;18.20;1.00
21207;DHT22;10761;48.532;8.026;2023-04-15T10:20:50;18.20;1.00
21207;DHT22;10761;48.532;8.026;2023-04-15T10:23:17;18.10;1.00
21207;DHT22;10761;48.532;8.026;2023-04-15T10:25:44;18.00;1.00
21207;DHT22;10761;48.532;8.026;2023-04-15T10:28:10;17.70;1.00
21207;DHT22;10761;48.532;8.026;2023-04-15T10:30:36;17.70;1.00
21207;DHT22;10761;48.532;8.026;2023-04-15T10:33:02;18.00;1.00
21207;DHT22;10761;48.532;8.026;2023-04-15T10:35:30;17.90;1.00
21207;DHT22;10761;48.532;8.026;2023-04-15T10:37:55;18.40;1.00
21207;DHT22;10761;48.532;8.026;2023-04-15T10:40:31;18.70;1.00
21207;DHT22;10761;48.532;8.026;2023-04-15T10:42:59;18.60;1.00
21207;DHT22;10761;48.532;8.026;2023-04-15T10:45:36;17.80;1.00
21207;DHT22;10761;48.532;8.026;2023-04-15T10:48:03;17.40;1.00
21207;DHT22;10761;48.532;8.026;2023-04-15T10:50:31;17.40;1.00
21207;DHT22;10761;48.532;8.026;2023-04-15T10:52:58;17.20;1.00
21207;DHT22;10761;48.532;8.026;2023-04-15T10:55:25;17.80;1.00
21207;DHT22;10761;48.532;8.026;2023-04-15T10:57:58;18.50;1.00
21207;DHT22;10761;48.532;8.026;2023-04-15T11:00:27;19.00;1.00
21207;DHT22;10761;48.532;8.026;2023-04-15T11:02:55;19.10;1.00
21207;DHT22;10761;48.532;8.026;2023-04-15T11:08:03;18.50;1.00
21207;DHT22;10761;48.532;8.026;2023-04-15T11:13:03;18.70;1.00
21207;DHT22;10761;48.532;8.026;2023-04-15T11:15:38;18.90;1.00
21207;DHT22;10761;48.532;8.026;2023-04-15T11:18:13;19.30;1.00
21207;DHT22;10761;48.532;8.026;2023-04-15T11:20:41;19.00;1.00
21207;DHT22;10761;48.532;8.026;2023-04-15T11:23:08;18.70;1.00
21207;DHT22;10761;48.532;8.026;2023-04-15T11:25:34;18.90;1.00
21207;DHT22;10761;48.532;8.026;2023-04-15T11:28:02;18.60;1.00
21207;DHT22;10761;48.532;8.026;2023-04-15T11:30:30;18.80;1.00
21207;DHT22;10761;48.532;8.026;2023-04-15T11:33:05;19.00;1.00
21207;DHT22;10761;48.532;8.026;2023-04-15T11:35:31;19.50;1.00
21207;DHT22;10761;48.532;8.026;2023-04-15T11:37:57;19.40;1.00
21207;DHT22;10761;48.532;8.026;2023-04-15T11:40:28;19.80;1.00
21207;DHT22;10761;48.532;8.026;2023-04-15T11:43:23;19.80;1.00
21207;DHT22;10761;48.532;8.026;2023-04-15T11:45:55;18.60;1.00
21207;DHT22;10761;48.532;8.026;2023-04-15T11:48:22;18.10;1.00
21207;DHT22;10761;48.532;8.026;2023-04-15T11:51:07;18.00;1.00
21207;DHT22;10761;48.532;8.026;2023-04-15T11:53:39;17.50;1.00
21207;DHT22;10761;48.532;8.026;2023-04-15T11:56:07;17.40;1.00
21207;DHT22;10761;48.532;8.026;2023-04-15T11:58:34;17.70;1.00
21207;DHT22;10761;48.532;8.026;2023-04-15T12:01:04;18.00;1.00
21207;DHT22;10761;48.532;8.026;2023-04-15T12:03:40;18.10;1.00
21207;DHT22;10761;48.532;8.026;2023-04-15T12:06:22;17.90;1.00
21207;DHT22;10761;48.532;8.026;2023-04-15T12:13:54;18.30;1.00
21207;DHT22;10761;48.532;8.026;2023-04-15T12:16:21;18.80;1.00
21207;DHT22;10761;48.532;8.026;2023-04-15T12:18:54;18.60;1.00
21207;DHT22;10761;48.532;8.026;2023-04-15T12:21:21;18.00;1.00
21207;DHT22;10761;48.532;8.026;2023-04-15T12:23:52;17.60;1.00
21207;DHT22;10761;48.532;8.026;2023-04-15T12:26:25;17.20;1.00
21207;DHT22;10761;48.532;8.026;2023-04-15T12:28:54;16.80;1.00
21207;DHT22;10761;48.532;8.026;2023-04-15T12:31:21;16.70;1.00
21207;DHT22;10761;48.532;8.026;2023-04-15T12:33:48;17.00;1.00
21207;DHT22;10761;48.532;8.026;2023-04-15T12:36:14;17.10;1.00
21207;DHT22;10761;48.532;8.026;2023-04-15T12:38:40;17.00;1.00
21207;DHT22;10761;48.532;8.026;2023-04-15T12:41:06;17.40;1.00
21207;DHT22;10761;48.532;8.026;2023-04-15T12:43:32;17.60;1.00
21207;DHT22;10761;48.532;8.026;2023-04-15T12:45:57;17.80;1.00
21207;DHT22;10761;48.532;8.026;2023-04-15T12:48:23;17.80;1.00
21207;DHT22;10761;48.532;8.026;2023-04-15T12:50:48;17.70;1.00
21207;DHT22;10761;48.532;8.026;2023-04-15T12:53:14;18.00;1.00
21207;DHT22;10761;48.532;8.026;2023-04-15T12:55:39;18.30;1.00
21207;DHT22;10761;48.532;8.026;2023-04-15T12:58:05;18.60;1.00
21207;DHT22;10761;48.532;8.026;2023-04-15T13:00:33;18.80;1.00
21207;DHT22;10761;48.532;8.026;2023-04-15T13:02:59;19.20;1.00
21207;DHT22;10761;48.532;8.026;2023-04-15T13:05:25;19.30;1.00
21207;DHT22;10761;48.532;8.026;2023-04-15T13:07:50;18.90;1.00
21207;DHT22;10761;48.532;8.026;2023-04-15T13:10:16;18.40;1.00
21207;DHT22;10761;48.532;8.026;2023-04-15T13:12:42;18.20;1.00
21207;DHT22;10761;48.532;8.026;2023-04-15T13:15:08;18.30;1.00
21207;DHT22;10761;48.532;8.026;2023-04-15T13:17:35;18.60;1.00
21207;DHT22;10761;48.532;8.026;2023-04-15T13:20:01;18.60;1.00
21207;DHT22;10761;48.532;8.026;2023-04-15T13:22:26;18.40;1.00
21207;DHT22;10761;48.532;8.026;2023-04-15T13:24:52;18.50;1.00
21207;DHT22;10761;48.532;8.026;2023-04-15T13:27:17;18.30;1.00
21207;DHT22;10761;48.532;8.026;2023-04-15T13:29:43;18.10;1.00
21207;DHT22;10761;48.532;8.026;2023-04-15T13:32:09;18.30;1.00
21207;DHT22;10761;48.532;8.026;2023-04-15T13:34:34;18.60;1.00
21207;DHT22;10761;48.532;8.026;2023-04-15T13:37:08;18.60;1.00
21207;DHT22;10761;48.532;8.026;2023-04-15T13:39:34;19.00;1.00
21207;DHT22;10761;48.532;8.026;2023-04-15T13:42:00;18.80;1.00
21207;DHT22;10761;48.532;8.026;2023-04-15T13:44:25;18.40;1.00
21207;DHT22;10761;48.532;8.026;2023-04-15T13:46:51;18.50;1.00
21207;DHT22;10761;48.532;8.026;2023-04-15T13:49:17;18.70;1.00
21207;DHT22;10761;48.532;8.026;2023-04-15T13:51:42;18.70;1.00
21207;DHT22;10761;48.532;8.026;2023-04-15T13:54:08;18.60;1.00
21207;DHT22;10761;48.532;8.026;2023-04-15T13:56:33;18.50;1.00
21207;DHT22;10761;48.532;8.026;2023-04-15T13:58:59;18.60;1.00
21207;DHT22;10761;48.532;8.026;2023-04-15T14:01:27;18.30;1.00
21207;DHT22;10761;48.532;8.026;2023-04-15T14:03:52;17.80;1.00
21207;DHT22;10761;48.532;8.026;2023-04-15T14:06:18;18.50;1.00
21207;DHT22;10761;48.532;8.026;2023-04-15T14:08:44;19.20;1.00
21207;DHT22;10761;48.532;8.026;2023-04-15T14:11:10;19.50;1.00
21207;DHT22;10761;48.532;8.026;2023-04-15T14:13:36;19.60;1.00
21207;DHT22;10761;48.532;8.026;2023-04-15T14:16:02;19.10;1.00
21207;DHT22;10761;48.532;8.026;2023-04-15T14:18:28;18.60;1.00
21207;DHT22;10761;48.532;8.026;2023-04-15T14:20:54;18.40;1.00
21207;DHT22;10761;48.532;8.026;2023-04-15T14:23:20;17.80;1.00
21207;DHT22;10761;48.532;8.026;2023-04-15T14:25:46;17.40;1.00
21207;DHT22;10761;48.532;8.026;2023-04-15T14:28:12;17.00;1.00
21207;DHT22;10761;48.532;8.026;2023-04-15T14:30:37;16.90;1.00
21207;DHT22;10761;48.532;8.026;2023-04-15T14:33:03;16.90;1.00
21207;DHT22;10761;48.532;8.026;2023-04-15T14:35:28;16.80;1.00
21207;DHT22;10761;48.532;8.026;2023-04-15T14:37:55;16.90;1.00
21207;DHT22;10761;48.532;8.026;2023-04-15T14:40:21;16.80;1.00
21207;DHT22;10761;48.532;8.026;2023-04-15T14:42:47;16.80;1.00
21207;DHT22;10761;48.532;8.026;2023-04-15T14:45:12;16.70;1.00
21207;DHT22;10761;48.532;8.026;2023-04-15T14:47:38;16.80;1.00
21207;DHT22;10761;48.532;8.026;2023-04-15T14:50:04;16.80;1.00
21207;DHT22;10761;48.532;8.026;2023-04-15T14:52:30;16.70;1.00
21207;DHT22;10761;48.532;8.026;2023-04-15T14:55:09;16.70;1.00
21207;DHT22;10761;48.532;8.026;2023-04-15T14:57:36;16.90;1.00
21207;DHT22;10761;48.532;8.026;2023-04-15T15:00:03;17.10;1.00
21207;DHT22;10761;48.532;8.026;2023-04-15T15:02:28;16.90;1.00
21207;DHT22;10761;48.532;8.026;2023-04-15T15:04:55;16.70;1.00
21207;DHT22;10761;48.532;8.026;2023-04-15T15:07:22;16.50;1.00
21207;DHT22;10761;48.532;8.026;2023-04-15T15:09:47;16.30;1.00
21207;DHT22;10761;48.532;8.026;2023-04-15T15:12:13;16.20;1.00
21207;DHT22;10761;48.532;8.026;2023-04-15T15:14:39;16.20;1.00
21207;DHT22;10761;48.532;8.026;2023-04-15T15:17:04;16.30;1.00
21207;DHT22;10761;48.532;8.026;2023-04-15T15:19:30;16.30;1.00
21207;DHT22;10761;48.532;8.026;2023-04-15T15:21:56;16.30;1.00
21207;DHT22;10761;48.532;8.026;2023-04-15T15:24:21;16.30;1.00
21207;DHT22;10761;48.532;8.026;2023-04-15T15:26:47;16.30;1.00
21207;DHT22;10761;48.532;8.026;2023-04-15T15:29:12;16.40;1.00
21207;DHT22;10761;48.532;8.026;2023-04-15T15:31:38;16.40;1.00
21207;DHT22;10761;48.532;8.026;2023-04-15T15:34:04;16.40;1.00
21207;DHT22;10761;48.532;8.026;2023-04-15T15:36:29;16.30;1.00
21207;DHT22;10761;48.532;8.026;2023-04-15T15:38:58;16.20;1.00
21207;DHT22;10761;48.532;8.026;2023-04-15T15:41:24;16.30;1.00
21207;DHT22;10761;48.532;8.026;2023-04-15T15:43:50;16.50;1.00
21207;DHT22;10761;48.532;8.026;2023-04-15T15:46:16;16.80;1.00
21207;DHT22;10761;48.532;8.026;2023-04-15T15:48:42;16.90;1.00
21207;DHT22;10761;48.532;8.026;2023-04-15T15:51:08;17.10;1.00
21207;DHT22;10761;48.532;8.026;2023-04-15T15:53:33;17.10;1.00
21207;DHT22;10761;48.532;8.026;2023-04-15T15:55:59;17.00;1.00
21207;DHT22;10761;48.532;8.026;2023-04-15T15:58:25;16.80;1.00